Time;durP1;ratioP1;P1;durP2;ratioP2;P2;SDS_P1;SDS_P2;PMS_P1;PMS_P2;Temp;Humidity;BMP_temperature;BMP_pressure;BME280_temperature;BME280_humidity;BME280_pressure;Samples;Min_cycle;Max_cycle;Signal;HPM_P1;HPM_P2
2023/03/01 00:00:36;;;;;;;;;17.75;12.75;;;;;;;;5082066;28;62236;-81
2023/03/01 00:03:02;;;;;;;;;17.25;15.50;;;;;;;;5063696;27;61751;-81
2023/03/01 00:05:27;;;;;;;;;23.75;17.75;;;;;;;;5063987;28;61848;-81
2023/03/01 00:07:53;;;;;;;;;19.00;13.25;;;;;;;;5082572;27;61856;-81
2023/03/01 00:10:18;;;;;;;;;20.00;19.00;;;;;;;;5063423;28;63949;-81
2023/03/01 00:12:43;;;;;;;;;21.50;18.25;;;;;;;;5082346;28;61820;-81
2023/03/01 00:15:09;;;;;;;;;20.00;14.50;;;;;;;;5064109;28;62031;-81
2023/03/01 00:17:34;;;;;;;;;29.50;16.50;;;;;;;;5064320;28;62125;-81
2023/03/01 00:19:59;;;;;;;;;21.50;16.50;;;;;;;;5062605;28;63499;-81
2023/03/01 00:22:28;;;;;;;;;18.50;14.25;;;;;;;;5064259;27;61970;-81
2023/03/01 00:24:53;;;;;;;;;18.75;14.50;;;;;;;;5063497;28;61952;-81
2023/03/01 00:27:18;;;;;;;;;21.25;15.50;;;;;;;;5082384;28;61988;-81
2023/03/01 00:29:44;;;;;;;;;17.25;16.50;;;;;;;;5081450;27;62959;-81
2023/03/01 00:32:09;;;;;;;;;12.75;10.50;;;;;;;;5081441;28;61910;-81
2023/03/01 00:34:34;;;;;;;;;18.00;12.75;;;;;;;;5081479;27;62024;-81
2023/03/01 00:37:04;;;;;;;;;15.75;10.75;;;;;;;;5082129;27;62220;-81
2023/03/01 00:39:30;;;;;;;;;15.25;12.00;;;;;;;;5062865;28;64592;-81
2023/03/01 00:41:56;;;;;;;;;11.75;11.75;;;;;;;;5063691;28;61806;-81
2023/03/01 00:44:21;;;;;;;;;21.50;16.75;;;;;;;;5082157;28;61697;-81
2023/03/01 00:46:47;;;;;;;;;18.00;15.75;;;;;;;;5082193;28;62023;-81
2023/03/01 00:49:13;;;;;;;;;18.50;15.00;;;;;;;;5080737;27;61897;-81
2023/03/01 00:51:41;;;;;;;;;21.25;15.00;;;;;;;;5063600;28;61760;-81
2023/03/01 00:54:08;;;;;;;;;19.75;16.00;;;;;;;;5081422;27;62090;-81
2023/03/01 00:56:33;;;;;;;;;25.00;15.50;;;;;;;;5063638;27;61812;-81
2023/03/01 00:58:58;;;;;;;;;23.00;15.00;;;;;;;;5063969;27;64695;-81
2023/03/01 01:01:27;;;;;;;;;18.50;13.25;;;;;;;;5066931;28;62054;-81
2023/03/01 01:04:11;;;;;;;;;15.50;13.25;;;;;;;;5085132;28;62004;-81
2023/03/01 01:06:44;;;;;;;;;18.00;15.00;;;;;;;;5085411;27;62060;-81
2023/03/01 01:09:16;;;;;;;;;15.75;12.25;;;;;;;;5065796;28;65043;-81
2023/03/01 01:11:42;;;;;;;;;21.75;13.25;;;;;;;;5085406;27;61924;-81
2023/03/01 01:14:07;;;;;;;;;17.75;13.25;;;;;;;;5066603;28;61836;-81
2023/03/01 01:16:33;;;;;;;;;12.75;11.00;;;;;;;;5085635;27;62023;-81
2023/03/01 01:18:58;;;;;;;;;20.00;13.25;;;;;;;;5065904;27;63692;-81
2023/03/01 01:21:24;;;;;;;;;15.00;13.25;;;;;;;;5066187;28;62227;-81
2023/03/01 01:23:49;;;;;;;;;19.00;14.00;;;;;;;;5084872;27;61845;-81
2023/03/01 01:26:19;;;;;;;;;17.50;12.50;;;;;;;;5066748;28;62162;-81
2023/03/01 01:28:45;;;;;;;;;19.00;12.75;;;;;;;;5065733;28;64178;-81
2023/03/01 01:31:10;;;;;;;;;20.25;15.00;;;;;;;;5084475;27;62079;-80
2023/03/01 01:33:37;;;;;;;;;23.00;15.75;;;;;;;;5084375;27;62589;-81
2023/03/01 01:36:02;;;;;;;;;19.00;13.00;;;;;;;;5066108;28;61879;-81
2023/03/01 01:38:28;;;;;;;;;14.50;11.50;;;;;;;;5084255;28;63041;-81
2023/03/01 01:40:53;;;;;;;;;15.25;10.25;;;;;;;;5066415;27;61882;-80
2023/03/01 01:43:26;;;;;;;;;16.25;11.75;;;;;;;;5066062;28;61755;-81
2023/03/01 01:45:54;;;;;;;;;20.75;14.25;;;;;;;;5066377;28;61977;-81
2023/03/01 01:48:22;;;;;;;;;18.00;13.33;;;;;;;;5083888;28;62089;-81
2023/03/01 01:50:51;;;;;;;;;18.25;15.25;;;;;;;;5084043;28;61828;-81
2023/03/01 01:53:18;;;;;;;;;19.50;17.25;;;;;;;;5065992;28;61926;-81
2023/03/01 01:55:48;;;;;;;;;18.00;17.00;;;;;;;;5084845;27;61851;-81
2023/03/01 01:58:16;;;;;;;;;22.50;17.00;;;;;;;;5065217;28;64161;-80
2023/03/01 02:00:41;;;;;;;;;16.00;13.00;;;;;;;;5065765;28;61807;-80
2023/03/01 02:03:09;;;;;;;;;19.50;16.25;;;;;;;;5084225;28;61875;-81
2023/03/01 02:05:43;;;;;;;;;15.25;12.25;;;;;;;;5065384;28;61690;-81
2023/03/01 02:08:08;;;;;;;;;16.25;14.00;;;;;;;;5083720;27;61999;-81
2023/03/01 02:10:34;;;;;;;;;19.50;16.25;;;;;;;;5083464;27;61860;-81
2023/03/01 02:12:59;;;;;;;;;20.50;14.50;;;;;;;;5065956;28;61755;-81
2023/03/01 02:15:26;;;;;;;;;18.00;15.50;;;;;;;;5084168;28;62210;-81
2023/03/01 02:17:52;;;;;;;;;18.75;13.25;;;;;;;;5065276;28;63798;-81
2023/03/01 02:20:18;;;;;;;;;18.75;15.50;;;;;;;;5065301;28;61879;-81
2023/03/01 02:22:44;;;;;;;;;16.00;12.50;;;;;;;;5065802;28;61769;-81
2023/03/01 02:25:18;;;;;;;;;11.00;11.00;;;;;;;;5065952;28;62088;-80
2023/03/01 02:28:04;;;;;;;;;19.00;14.50;;;;;;;;5065007;28;63621;-81
2023/03/01 02:30:32;;;;;;;;;16.75;13.00;;;;;;;;5083455;28;61773;-81
2023/03/01 02:33:02;;;;;;;;;15.75;11.50;;;;;;;;5083644;28;61829;-81
2023/03/01 02:35:28;;;;;;;;;12.75;4.50;;;;;;;;5064683;28;61764;-81
2023/03/01 02:37:56;;;;;;;;;18.50;14.75;;;;;;;;5064916;28;65081;-81
2023/03/01 02:40:22;;;;;;;;;19.75;14.50;;;;;;;;5065376;28;62019;-81
2023/03/01 02:42:55;;;;;;;;;19.00;15.00;;;;;;;;5065591;28;62008;-80
2023/03/01 02:45:21;;;;;;;;;17.50;13.25;;;;;;;;5065064;28;61836;-80
2023/03/01 02:47:46;;;;;;;;;18.00;14.75;;;;;;;;5082884;27;63002;-81
2023/03/01 02:50:30;;;;;;;;;23.50;18.25;;;;;;;;5064628;28;61762;-81
2023/03/01 02:53:04;;;;;;;;;19.50;14.75;;;;;;;;5065354;28;61907;-81
2023/03/01 02:55:30;;;;;;;;;15.00;12.00;;;;;;;;5083416;27;61815;-81
2023/03/01 02:57:56;;;;;;;;;10.00;6.50;;;;;;;;5064478;28;63261;-81
2023/03/01 03:00:24;;;;;;;;;18.50;14.50;;;;;;;;5083109;28;61759;-81
2023/03/01 03:02:51;;;;;;;;;25.00;17.00;;;;;;;;5083254;27;61923;-81
2023/03/01 03:05:16;;;;;;;;;23.25;13.75;;;;;;;;5082781;28;61924;-81
2023/03/01 03:07:43;;;;;;;;;19.00;14.25;;;;;;;;5064318;28;65070;-81
2023/03/01 03:10:11;;;;;;;;;24.75;17.00;;;;;;;;5083245;28;61884;-81
2023/03/01 03:12:36;;;;;;;;;25.00;18.25;;;;;;;;5083126;28;62007;-80
2023/03/01 03:15:08;;;;;;;;;21.75;18.00;;;;;;;;5064971;28;62091;-80
2023/03/01 03:17:33;;;;;;;;;21.25;15.00;;;;;;;;5082303;27;62029;-81
2023/03/01 03:19:59;;;;;;;;;19.25;16.25;;;;;;;;5064605;28;61743;-80
2023/03/01 03:22:24;;;;;;;;;25.67;14.33;;;;;;;;5063773;28;62036;-80
2023/03/01 03:24:49;;;;;;;;;9.50;7.75;;;;;;;;5082879;28;61944;-81
2023/03/01 03:27:14;;;;;;;;;19.50;14.75;;;;;;;;5064168;28;63611;-81
2023/03/01 03:29:40;;;;;;;;;21.50;14.75;;;;;;;;5064044;28;62031;-80
2023/03/01 03:32:05;;;;;;;;;18.50;13.50;;;;;;;;5082389;28;62045;-80
2023/03/01 03:34:30;;;;;;;;;24.00;17.00;;;;;;;;5064275;28;61957;-80
2023/03/01 03:36:59;;;;;;;;;19.00;17.50;;;;;;;;5063834;28;64117;-80
2023/03/01 03:39:25;;;;;;;;;18.33;15.00;;;;;;;;5064297;28;61862;-80
2023/03/01 03:41:50;;;;;;;;;28.50;15.50;;;;;;;;5082836;28;61698;-80
2023/03/01 03:44:15;;;;;;;;;17.75;13.75;;;;;;;;5082907;28;62097;-80
2023/03/01 03:46:40;;;;;;;;;21.67;17.00;;;;;;;;5063471;28;63480;-80
2023/03/01 03:49:06;;;;;;;;;14.33;12.67;;;;;;;;5064464;28;61882;-80
2023/03/01 03:51:31;;;;;;;;;25.75;14.25;;;;;;;;5064055;28;61741;-80
2023/03/01 03:53:56;;;;;;;;;23.00;17.00;;;;;;;;5064001;28;61803;-80
2023/03/01 03:56:25;;;;;;;;;17.00;13.33;;;;;;;;5063871;28;64775;-80
2023/03/01 03:58:50;;;;;;;;;19.33;11.67;;;;;;;;5082210;27;62083;-80
2023/03/01 04:01:16;;;;;;;;;22.00;12.67;;;;;;;;5064145;28;61782;-80
2023/03/01 04:03:46;;;;;;;;;16.00;12.67;;;;;;;;5082589;28;62178;-80
2023/03/01 04:06:11;;;;;;;;;12.50;12.50;;;;;;;;5081587;28;61975;-80
2023/03/01 04:08:36;;;;;;;;;24.00;14.25;;;;;;;;5082430;28;61818;-80
2023/03/01 04:11:25;;;;;;;;;24.75;16.00;;;;;;;;5063990;28;61782;-80
2023/03/01 04:13:49;;;;;;;;;18.33;14.00;;;;;;;;5082191;28;61747;-80
2023/03/01 04:16:14;;;;;;;;;19.50;14.50;;;;;;;;5063239;28;63381;-80
2023/03/01 04:18:40;;;;;;;;;16.00;14.50;;;;;;;;5064050;28;61750;-80
2023/03/01 04:21:05;;;;;;;;;24.33;15.00;;;;;;;;5063608;28;61941;-80
2023/03/01 04:23:30;;;;;;;;;7.00;0.00;;;;;;;;5082402;28;61759;-80
2023/03/01 04:25:56;;;;;;;;;21.33;13.33;;;;;;;;5081462;28;62847;-80
2023/03/01 04:28:32;;;;;;;;;19.33;14.67;;;;;;;;5082176;27;61844;-80
2023/03/01 04:30:58;;;;;;;;;20.67;17.67;;;;;;;;5063304;28;61952;-80
2023/03/01 04:33:24;;;;;;;;;16.33;12.67;;;;;;;;5082842;28;61828;-80
2023/03/01 04:35:49;;;;;;;;;22.67;16.33;;;;;;;;5084434;28;63273;-80
2023/03/01 04:38:15;;;;;;;;;19.33;17.67;;;;;;;;5085676;27;61729;-80
2023/03/01 04:40:42;;;;;;;;;18.33;13.33;;;;;;;;5085695;27;61743;-80
2023/03/01 04:43:08;;;;;;;;;25.00;14.33;;;;;;;;5067431;28;61791;-80
2023/03/01 04:45:34;;;;;;;;;25.75;16.50;;;;;;;;5084521;27;61805;-80
2023/03/01 04:47:59;;;;;;;;;23.67;18.00;;;;;;;;5085042;28;61742;-80
2023/03/01 04:50:25;;;;;;;;;20.33;17.00;;;;;;;;5084792;28;62040;-80
2023/03/01 04:52:51;;;;;;;;;26.33;15.00;;;;;;;;5067202;28;62212;-80
2023/03/01 04:55:16;;;;;;;;;22.00;15.67;;;;;;;;5066265;28;64117;-80
2023/03/01 04:57:41;;;;;;;;;23.33;16.33;;;;;;;;5085392;28;61976;-80
2023/03/01 05:00:19;;;;;;;;;28.33;17.00;;;;;;;;5066271;28;62234;-80
2023/03/01 05:02:45;;;;;;;;;24.00;16.33;;;;;;;;5067095;28;61837;-80
2023/03/01 05:05:11;;;;;;;;;23.75;17.50;;;;;;;;5065704;28;64921;-80
2023/03/01 05:07:36;;;;;;;;;29.67;21.33;;;;;;;;5066587;28;61778;-80
2023/03/01 05:10:01;;;;;;;;;24.33;18.67;;;;;;;;5085107;28;61910;-80
2023/03/01 05:12:27;;;;;;;;;25.00;21.00;;;;;;;;5085403;28;61703;-80
2023/03/01 05:14:52;;;;;;;;;24.00;16.33;;;;;;;;5065793;28;63875;-80
2023/03/01 05:17:17;;;;;;;;;28.00;18.00;;;;;;;;5066547;28;61722;-80
2023/03/01 05:19:42;;;;;;;;;29.33;19.67;;;;;;;;5084722;28;61708;-80
2023/03/01 05:22:07;;;;;;;;;22.00;17.67;;;;;;;;5084904;28;62144;-81
2023/03/01 05:24:34;;;;;;;;;25.25;18.00;;;;;;;;5065773;28;64586;-80
2023/03/01 05:27:00;;;;;;;;;26.00;18.33;;;;;;;;5084734;28;61792;-80
2023/03/01 05:29:26;;;;;;;;;24.67;18.33;;;;;;;;5083884;28;61780;-80
2023/03/01 05:31:53;;;;;;;;;32.33;20.00;;;;;;;;5067303;28;61848;-80
2023/03/01 05:34:19;;;;;;;;;24.00;20.00;;;;;;;;5065498;28;64048;-80
2023/03/01 05:36:44;;;;;;;;;22.33;17.33;;;;;;;;5065925;27;61853;-80
2023/03/01 05:39:09;;;;;;;;;23.67;14.00;;;;;;;;5066341;28;61932;-80
2023/03/01 05:41:35;;;;;;;;;23.00;20.67;;;;;;;;5084954;27;62012;-80
2023/03/01 05:44:01;;;;;;;;;28.33;21.00;;;;;;;;5065126;27;63596;-80
2023/03/01 05:46:26;;;;;;;;;23.33;20.67;;;;;;;;5083851;28;61878;-80
2023/03/01 05:48:52;;;;;;;;;31.75;18.00;;;;;;;;5065902;28;61993;-80
2023/03/01 05:51:17;;;;;;;;;29.00;19.33;;;;;;;;5065877;28;62237;-80
2023/03/01 05:53:42;;;;;;;;;25.00;18.00;;;;;;;;5083771;27;62091;-80
2023/03/01 05:56:08;;;;;;;;;35.75;24.75;;;;;;;;5084242;27;61973;-80
2023/03/01 05:58:33;;;;;;;;;21.00;19.33;;;;;;;;5065488;28;62029;-80
2023/03/01 06:00:58;;;;;;;;;25.33;20.00;;;;;;;;5066154;28;61712;-80
2023/03/01 06:03:23;;;;;;;;;27.67;18.00;;;;;;;;5065328;28;63473;-80
2023/03/01 06:05:49;;;;;;;;;28.33;26.67;;;;;;;;5065475;28;62104;-80
2023/03/01 06:08:14;;;;;;;;;32.67;24.00;;;;;;;;5084149;28;61840;-81
2023/03/01 06:10:40;;;;;;;;;23.00;20.00;;;;;;;;5084408;27;61730;-80
2023/03/01 06:13:05;;;;;;;;;33.67;25.33;;;;;;;;5083588;28;62383;-84
2023/03/01 06:15:31;;;;;;;;;33.67;25.33;;;;;;;;5065598;28;61867;-82
2023/03/01 06:17:56;;;;;;;;;31.00;24.00;;;;;;;;5066058;28;62007;-81
2023/03/01 06:20:23;;;;;;;;;43.33;27.00;;;;;;;;5065414;28;62227;-81
2023/03/01 06:22:49;;;;;;;;;36.00;24.67;;;;;;;;5083106;27;63116;-82
2023/03/01 06:25:16;;;;;;;;;27.67;18.33;;;;;;;;5065655;28;61866;-82
2023/03/01 06:27:42;;;;;;;;;36.00;26.00;;;;;;;;5083994;28;61682;-82
2023/03/01 06:30:09;;;;;;;;;33.00;25.33;;;;;;;;5084049;27;62182;-82
2023/03/01 06:32:35;;;;;;;;;43.67;30.00;;;;;;;;5064490;28;63884;-82
2023/03/01 06:35:00;;;;;;;;;30.00;27.00;;;;;;;;5065059;28;61992;-82
2023/03/01 06:37:25;;;;;;;;;34.00;26.33;;;;;;;;5084214;28;61760;-83
2023/03/01 06:39:51;;;;;;;;;32.33;25.33;;;;;;;;5085174;27;61800;-84
2023/03/01 06:42:16;;;;;;;;;42.00;27.33;;;;;;;;5064600;28;64070;-83
2023/03/01 06:44:41;;;;;;;;;30.00;24.00;;;;;;;;5065062;28;62260;-83
2023/03/01 06:47:07;;;;;;;;;42.33;28.00;;;;;;;;5063555;28;61771;-83
2023/03/01 06:49:32;;;;;;;;;25.00;21.33;;;;;;;;5083280;27;61909;-82
2023/03/01 06:51:57;;;;;;;;;27.00;22.33;;;;;;;;5082814;27;62954;-82
2023/03/01 06:54:23;;;;;;;;;36.33;24.00;;;;;;;;5064803;28;61888;-83
2023/03/01 06:56:49;;;;;;;;;32.33;26.67;;;;;;;;5083033;28;61768;-83
2023/03/01 06:59:14;;;;;;;;;34.67;27.67;;;;;;;;5064955;28;62190;-82
2023/03/01 07:01:39;;;;;;;;;29.00;24.00;;;;;;;;5064493;28;63480;-82
2023/03/01 07:04:05;;;;;;;;;28.00;20.00;;;;;;;;5083190;28;61915;-82
2023/03/01 07:06:30;;;;;;;;;39.00;27.33;;;;;;;;5064384;28;61886;-82
2023/03/01 07:08:55;;;;;;;;;49.00;28.33;;;;;;;;5083359;28;61789;-82
2023/03/01 07:11:21;;;;;;;;;29.00;23.33;;;;;;;;5082301;28;62839;-83
2023/03/01 07:13:46;;;;;;;;;28.00;28.00;;;;;;;;5082868;28;61697;-83
2023/03/01 07:16:11;;;;;;;;;35.33;30.33;;;;;;;;5064856;28;62141;-83
2023/03/01 07:18:36;;;;;;;;;32.33;30.33;;;;;;;;5064891;28;61979;-83
2023/03/01 07:21:06;;;;;;;;;37.00;29.67;;;;;;;;5063693;28;63508;-83
2023/03/01 07:23:31;;;;;;;;;47.33;36.00;;;;;;;;5064791;28;61894;-83
2023/03/01 07:25:57;;;;;;;;;48.67;40.00;;;;;;;;5064490;28;61889;-83
2023/03/01 07:28:22;;;;;;;;;58.33;39.33;;;;;;;;5082901;27;61827;-83
2023/03/01 07:30:47;;;;;;;;;50.00;36.33;;;;;;;;5081494;28;62047;-83
2023/03/01 07:33:13;;;;;;;;;41.67;35.67;;;;;;;;5064464;28;61842;-83
2023/03/01 07:35:38;;;;;;;;;38.00;30.33;;;;;;;;5082153;28;61757;-83
2023/03/01 07:38:03;;;;;;;;;52.67;36.33;;;;;;;;5083100;27;61766;-83
2023/03/01 07:40:28;;;;;;;;;40.67;32.67;;;;;;;;5063526;28;65084;-81
2023/03/01 07:42:57;;;;;;;;;40.33;28.67;;;;;;;;5082736;27;61810;-78
2023/03/01 07:45:23;;;;;;;;;41.75;30.00;;;;;;;;5082015;27;62208;-79
2023/03/01 07:47:49;;;;;;;;;32.67;18.00;;;;;;;;5064201;28;61847;-79
2023/03/01 07:50:15;;;;;;;;;32.75;25.00;;;;;;;;5060746;28;65065;-78
2023/03/01 07:52:40;;;;;;;;;30.33;25.00;;;;;;;;5080792;28;61896;-79
2023/03/01 07:55:06;;;;;;;;;36.00;27.67;;;;;;;;5082038;28;61956;-80
2023/03/01 07:57:31;;;;;;;;;47.00;39.33;;;;;;;;5078233;27;61831;-80
2023/03/01 07:59:56;;;;;;;;;32.33;30.33;;;;;;;;5053157;28;63451;-80
2023/03/01 08:02:22;;;;;;;;;29.00;27.25;;;;;;;;5054406;28;62167;-80
2023/03/01 08:04:47;;;;;;;;;35.50;26.50;;;;;;;;5055846;28;62189;-80
2023/03/01 08:07:12;;;;;;;;;55.25;34.75;;;;;;;;5082914;28;61960;-77
2023/03/01 08:09:37;;;;;;;;;36.00;29.00;;;;;;;;5065655;28;64834;-77
2023/03/01 08:12:04;;;;;;;;;33.75;28.50;;;;;;;;5085719;27;62129;-77
2023/03/01 08:14:29;;;;;;;;;37.00;30.50;;;;;;;;5085868;28;61769;-76
2023/03/01 08:16:55;;;;;;;;;37.75;32.00;;;;;;;;5085957;27;62083;-76
2023/03/01 08:19:20;;;;;;;;;33.25;28.00;;;;;;;;5085134;27;62822;-76
2023/03/01 08:21:45;;;;;;;;;41.75;29.50;;;;;;;;5066922;28;62044;-77
2023/03/01 08:24:11;;;;;;;;;33.00;27.33;;;;;;;;5067149;27;61777;-77
2023/03/01 08:26:36;;;;;;;;;31.25;24.00;;;;;;;;5086202;27;61810;-77
2023/03/01 08:29:02;;;;;;;;;39.00;32.67;;;;;;;;5084584;27;62560;-77
2023/03/01 08:31:29;;;;;;;;;38.33;29.00;;;;;;;;5085295;27;61833;-77
2023/03/01 08:33:56;;;;;;;;;27.67;23.33;;;;;;;;5085491;27;61645;-77
2023/03/01 08:36:25;;;;;;;;;35.67;30.00;;;;;;;;5085305;28;62076;-77
2023/03/01 08:38:51;;;;;;;;;34.00;28.00;;;;;;;;5066507;28;63887;-77
2023/03/01 08:41:16;;;;;;;;;31.50;23.25;;;;;;;;5085416;28;61873;-77
2023/03/01 08:43:41;;;;;;;;;34.00;26.50;;;;;;;;5067223;28;61681;-77
2023/03/01 08:46:07;;;;;;;;;41.75;30.00;;;;;;;;5082515;27;62223;-77
2023/03/01 08:48:32;;;;;;;;;43.25;32.00;;;;;;;;5071313;28;61763;-77
2023/03/01 08:51:06;;;;;;;;;38.25;28.50;;;;;;;;5067248;28;61784;-77
2023/03/01 08:53:31;;;;;;;;;25.50;23.50;;;;;;;;5049983;28;62243;-77
2023/03/01 08:55:59;;;;;;;;;34.00;26.33;;;;;;;;5085212;27;61803;-77
2023/03/01 08:58:25;;;;;;;;;32.00;30.00;;;;;;;;5084707;28;61918;-78
2023/03/01 09:00:50;;;;;;;;;36.33;27.00;;;;;;;;5066459;27;61956;-75
2023/03/01 09:03:15;;;;;;;;;39.67;33.33;;;;;;;;5066606;28;61806;-75
2023/03/01 09:05:40;;;;;;;;;32.75;24.50;;;;;;;;5065978;28;61957;-75
2023/03/01 09:08:08;;;;;;;;;41.33;27.67;;;;;;;;5084124;27;62979;-75
2023/03/01 09:10:36;;;;;;;;;44.75;30.25;;;;;;;;5085010;27;61887;-75
2023/03/01 09:13:02;;;;;;;;;32.00;24.00;;;;;;;;5066329;28;61840;-75
2023/03/01 09:15:27;;;;;;;;;29.00;27.75;;;;;;;;5085014;28;61701;-75
2023/03/01 09:17:52;;;;;;;;;31.25;27.75;;;;;;;;5081136;27;63155;-75
2023/03/01 09:20:17;;;;;;;;;29.00;25.50;;;;;;;;5072437;28;61724;-75
2023/03/01 09:22:43;;;;;;;;;33.00;28.25;;;;;;;;5074783;27;61715;-76
2023/03/01 09:25:09;;;;;;;;;39.50;29.50;;;;;;;;5074651;28;61649;-75
2023/03/01 09:27:34;;;;;;;;;34.50;29.75;;;;;;;;5076901;27;61785;-75
2023/03/01 09:30:00;;;;;;;;;33.50;24.75;;;;;;;;5055154;28;62189;-75
2023/03/01 09:32:25;;;;;;;;;30.00;24.50;;;;;;;;5074511;28;62559;-76
2023/03/01 09:35:06;;;;;;;;;31.25;23.25;;;;;;;;5059708;27;62318;-79
2023/03/01 09:37:34;;;;;;;;;38.50;25.25;;;;;;;;5084087;27;62821;-78
2023/03/01 09:40:00;;;;;;;;;30.00;23.75;;;;;;;;5084593;27;61893;-78
2023/03/01 09:42:26;;;;;;;;;27.00;25.75;;;;;;;;5066402;28;61808;-78
2023/03/01 09:44:53;;;;;;;;;32.75;22.75;;;;;;;;5084452;27;61773;-78
2023/03/01 09:47:20;;;;;;;;;35.50;26.25;;;;;;;;5083515;28;61840;-78
2023/03/01 09:49:52;;;;;;;;;37.75;33.25;;;;;;;;5065424;28;62017;-77
2023/03/01 09:52:19;;;;;;;;;29.00;25.75;;;;;;;;5066143;28;61943;-77
2023/03/01 09:54:44;;;;;;;;;33.00;25.25;;;;;;;;5084450;28;61734;-78
2023/03/01 09:57:12;;;;;;;;;34.25;26.50;;;;;;;;5065505;28;63787;-78
2023/03/01 09:59:44;;;;;;;;;38.50;30.00;;;;;;;;5083903;27;61818;-78
2023/03/01 10:02:28;;;;;;;;;39.25;27.75;;;;;;;;5082736;27;61876;-77
2023/03/01 10:04:59;;;;;;;;;33.00;24.75;;;;;;;;5077254;27;61930;-78
2023/03/01 10:07:32;;;;;;;;;34.00;29.50;;;;;;;;5053813;28;63913;-78
2023/03/01 10:09:58;;;;;;;;;35.25;23.25;;;;;;;;5045599;28;61783;-78
2023/03/01 10:12:26;;;;;;;;;29.50;18.00;;;;;;;;5045342;28;61915;-77
2023/03/01 10:15:00;;;;;;;;;34.75;24.50;;;;;;;;5045513;28;62115;-78
2023/03/01 10:17:34;;;;;;;;;26.50;22.75;;;;;;;;5044787;28;64978;-77
2023/03/01 10:20:14;;;;;;;;;30.00;20.50;;;;;;;;5045111;28;62042;-78
2023/03/01 10:22:39;;;;;;;;;31.00;25.00;;;;;;;;5064600;27;61821;-78
2023/03/01 10:25:05;;;;;;;;;38.50;28.25;;;;;;;;5065562;28;61793;-77
2023/03/01 10:27:46;;;;;;;;;37.75;32.50;;;;;;;;5064824;27;64715;-77
2023/03/01 10:30:12;;;;;;;;;38.25;25.00;;;;;;;;5055242;28;61890;-78
2023/03/01 10:32:37;;;;;;;;;31.25;25.25;;;;;;;;5060512;28;61878;-77
2023/03/01 10:35:15;;;;;;;;;36.50;27.75;;;;;;;;5064874;28;61770;-77
2023/03/01 10:37:56;;;;;;;;;38.50;27.50;;;;;;;;5082705;27;61997;-77
2023/03/01 10:40:22;;;;;;;;;23.25;15.00;;;;;;;;5083560;28;61882;-77
2023/03/01 10:42:48;;;;;;;;;41.25;29.50;;;;;;;;5065469;28;61884;-77
2023/03/01 10:45:29;;;;;;;;;32.50;23.50;;;;;;;;5065240;28;61841;-78
2023/03/01 10:48:15;;;;;;;;;32.75;25.25;;;;;;;;5071878;27;63026;-77
2023/03/01 10:51:00;;;;;;;;;32.75;26.25;;;;;;;;5058049;28;62297;-77
2023/03/01 10:53:33;;;;;;;;;38.25;27.25;;;;;;;;5065706;28;61805;-77
2023/03/01 10:56:04;;;;;;;;;20.50;18.25;;;;;;;;5056392;28;61796;-78
2023/03/01 10:58:30;;;;;;;;;40.75;27.50;;;;;;;;5073032;28;63166;-78
2023/03/01 11:00:57;;;;;;;;;30.50;28.25;;;;;;;;5075673;28;61845;-78
2023/03/01 11:03:40;;;;;;;;;32.25;25.00;;;;;;;;5064790;28;61794;-78
2023/03/01 11:06:12;;;;;;;;;38.25;31.75;;;;;;;;5083009;27;61843;-78
2023/03/01 11:08:38;;;;;;;;;43.00;27.50;;;;;;;;5063992;28;63351;-77
2023/03/01 11:11:25;;;;;;;;;31.00;24.25;;;;;;;;5083070;28;61747;-77
2023/03/01 11:13:51;;;;;;;;;33.50;29.25;;;;;;;;5047587;28;61922;-77
2023/03/01 11:16:22;;;;;;;;;47.25;28.50;;;;;;;;5064846;28;62259;-78
2023/03/01 11:18:55;;;;;;;;;36.25;26.00;;;;;;;;5064101;27;64607;-78
2023/03/01 11:21:20;;;;;;;;;38.00;23.75;;;;;;;;5062900;28;61842;-77
2023/03/01 11:23:46;;;;;;;;;35.50;24.75;;;;;;;;5062582;28;61804;-77
2023/03/01 11:26:13;;;;;;;;;28.75;27.25;;;;;;;;5062832;28;61836;-77
2023/03/01 11:28:40;;;;;;;;;34.25;23.75;;;;;;;;5065973;28;62147;-78
2023/03/01 11:31:11;;;;;;;;;34.75;27.25;;;;;;;;5063818;28;62007;-78
2023/03/01 11:33:55;;;;;;;;;40.75;29.75;;;;;;;;5064509;28;61908;-78
2023/03/01 11:36:20;;;;;;;;;45.75;27.50;;;;;;;;5064617;28;62137;-78
2023/03/01 11:39:02;;;;;;;;;40.00;26.50;;;;;;;;5063634;28;63527;-78
2023/03/01 11:41:37;;;;;;;;;34.25;28.50;;;;;;;;5082240;27;61870;-77
2023/03/01 11:44:17;;;;;;;;;30.00;23.50;;;;;;;;5063377;28;61706;-78
2023/03/01 11:47:00;;;;;;;;;35.25;27.50;;;;;;;;5082327;27;61786;-77
2023/03/01 11:49:50;;;;;;;;;26.75;25.00;;;;;;;;5078295;28;62502;-76
2023/03/01 11:52:15;;;;;;;;;27.25;24.25;;;;;;;;5081180;28;62120;-79
2023/03/01 11:54:47;;;;;;;;;25.50;23.00;;;;;;;;5082081;27;61769;-76
2023/03/01 11:57:36;;;;;;;;;31.75;29.75;;;;;;;;5063989;28;61924;-76
2023/03/01 12:00:07;;;;;;;;;26.50;19.00;;;;;;;;5066426;27;62785;-79
2023/03/01 12:02:39;;;;;;;;;37.50;27.50;;;;;;;;5070053;28;62032;-79
2023/03/01 12:05:16;;;;;;;;;34.25;23.00;;;;;;;;5050939;28;61823;-80
2023/03/01 12:08:00;;;;;;;;;33.25;27.50;;;;;;;;5082777;27;61973;-79
2023/03/01 12:10:51;;;;;;;;;31.25;25.50;;;;;;;;5071815;28;62119;-79
2023/03/01 12:13:27;;;;;;;;;39.75;29.00;;;;;;;;5030711;28;62051;-79
2023/03/01 12:16:01;;;;;;;;;33.50;29.75;;;;;;;;5081924;28;61906;-79
2023/03/01 12:18:42;;;;;;;;;29.75;23.25;;;;;;;;5064306;28;61843;-79
2023/03/01 12:21:13;;;;;;;;;34.75;25.50;;;;;;;;5062721;28;65353;-80
2023/03/01 12:24:08;;;;;;;;;42.25;30.75;;;;;;;;5063942;28;61902;-80
2023/03/01 12:26:35;;;;;;;;;31.75;29.75;;;;;;;;4963209;28;61920;-80
2023/03/01 12:29:19;;;;;;;;;35.00;24.50;;;;;;;;4962174;28;62216;-80
2023/03/01 12:31:57;;;;;;;;;32.00;27.00;;;;;;;;4978314;28;63484;-83
2023/03/01 12:34:31;;;;;;;;;36.75;24.75;;;;;;;;4977528;28;62013;-80
2023/03/01 12:37:06;;;;;;;;;36.75;28.00;;;;;;;;4977844;28;62623;-78
2023/03/01 12:39:40;;;;;;;;;33.00;28.50;;;;;;;;4979431;28;61907;-80
2023/03/01 12:42:24;;;;;;;;;33.75;28.25;;;;;;;;4978368;28;65001;-80
2023/03/01 12:45:08;;;;;;;;;28.25;23.25;;;;;;;;4979456;28;62172;-80
2023/03/01 12:47:45;;;;;;;;;36.75;28.00;;;;;;;;4979522;28;62016;-80
2023/03/01 12:50:14;;;;;;;;;32.00;26.75;;;;;;;;4962688;28;61836;-80
2023/03/01 12:52:43;;;;;;;;;36.75;27.50;;;;;;;;4962503;28;63704;-80
2023/03/01 12:55:18;;;;;;;;;36.00;25.75;;;;;;;;4964522;28;62054;-80
2023/03/01 12:57:51;;;;;;;;;27.25;24.50;;;;;;;;4982604;28;61859;-80
2023/03/01 13:00:17;;;;;;;;;28.75;22.25;;;;;;;;4982648;28;61920;-80
2023/03/01 13:02:52;;;;;;;;;29.75;22.25;;;;;;;;5016394;28;63613;-79
2023/03/01 13:05:30;;;;;;;;;29.50;22.75;;;;;;;;5084349;27;61820;-80
2023/03/01 13:08:06;;;;;;;;;37.50;25.25;;;;;;;;5070292;28;61759;-80
2023/03/01 13:10:38;;;;;;;;;35.25;26.00;;;;;;;;5052066;28;61889;-80
2023/03/01 13:13:19;;;;;;;;;33.25;27.00;;;;;;;;5054974;28;64760;-80
2023/03/01 13:15:47;;;;;;;;;30.25;24.25;;;;;;;;5075878;27;62092;-79
2023/03/01 13:18:15;;;;;;;;;30.50;26.25;;;;;;;;5056983;28;61798;-80
2023/03/01 13:20:41;;;;;;;;;33.50;27.00;;;;;;;;5064075;28;61931;-80
2023/03/01 13:23:10;;;;;;;;;28.00;23.75;;;;;;;;5061494;28;63786;-80
2023/03/01 13:25:56;;;;;;;;;37.75;25.50;;;;;;;;5082237;27;61900;-80
2023/03/01 13:28:41;;;;;;;;;31.50;23.50;;;;;;;;5074237;28;62057;-80
2023/03/01 13:31:08;;;;;;;;;26.75;21.75;;;;;;;;5055039;28;62089;-80
2023/03/01 13:33:39;;;;;;;;;33.00;30.00;;;;;;;;5083935;27;62872;-80
2023/03/01 13:36:08;;;;;;;;;32.00;25.75;;;;;;;;5082221;27;61993;-80
2023/03/01 13:38:36;;;;;;;;;41.50;29.75;;;;;;;;5083457;27;61906;-79
2023/03/01 13:41:02;;;;;;;;;29.00;27.00;;;;;;;;5084750;27;61785;-79
2023/03/01 13:43:33;;;;;;;;;27.25;25.50;;;;;;;;5083932;27;63267;-79
2023/03/01 13:45:59;;;;;;;;;28.50;22.00;;;;;;;;5077581;28;61968;-79
2023/03/01 13:48:28;;;;;;;;;33.50;30.25;;;;;;;;5063938;28;61667;-79
2023/03/01 13:51:20;;;;;;;;;33.00;30.25;;;;;;;;5045534;28;62128;-79
2023/03/01 13:53:47;;;;;;;;;26.00;25.00;;;;;;;;5066182;28;63199;-79
2023/03/01 13:56:15;;;;;;;;;33.75;27.00;;;;;;;;5083791;28;61887;-77
2023/03/01 13:59:01;;;;;;;;;30.50;25.50;;;;;;;;5065695;27;61902;-77
2023/03/01 14:01:28;;;;;;;;;30.25;26.00;;;;;;;;5065970;28;61895;-81
2023/03/01 14:03:53;;;;;;;;;29.25;22.75;;;;;;;;5083561;28;63023;-81
2023/03/01 14:06:32;;;;;;;;;28.75;23.75;;;;;;;;5082449;28;61869;-81
2023/03/01 14:09:08;;;;;;;;;28.75;28.25;;;;;;;;5065765;28;62088;-81
2023/03/01 14:11:43;;;;;;;;;31.50;24.00;;;;;;;;5065538;28;62211;-81
2023/03/01 14:14:23;;;;;;;;;31.75;23.25;;;;;;;;5065006;28;64998;-81
2023/03/01 14:16:57;;;;;;;;;30.25;28.75;;;;;;;;5084087;28;62009;-81
2023/03/01 14:19:25;;;;;;;;;29.25;23.75;;;;;;;;5074134;28;61813;-81
2023/03/01 14:22:00;;;;;;;;;31.25;24.50;;;;;;;;5083937;27;61648;-81
2023/03/01 14:24:27;;;;;;;;;28.00;23.25;;;;;;;;5081905;27;63752;-82